sensor_id;sensor_type;location;lat;lon;timestamp;P1;durP1;ratioP1;P2;durP2;ratioP2
56081;SDS011;41957;52.060;5.138;2022-10-26T00:00:46;12.00;;;3.22;;
56081;SDS011;41957;52.060;5.138;2022-10-26T00:03:12;11.65;;;3.33;;
56081;SDS011;41957;52.060;5.138;2022-10-26T00:05:37;10.18;;;2.90;;
56081;SDS011;41957;52.060;5.138;2022-10-26T00:08:03;11.55;;;3.20;;
56081;SDS011;41957;52.060;5.138;2022-10-26T00:10:29;10.32;;;2.83;;
56081;SDS011;41957;52.060;5.138;2022-10-26T00:12:55;10.10;;;3.00;;
56081;SDS011;41957;52.060;5.138;2022-10-26T00:15:20;10.93;;;3.10;;
56081;SDS011;41957;52.060;5.138;2022-10-26T00:17:46;10.80;;;3.22;;
56081;SDS011;41957;52.060;5.138;2022-10-26T00:20:12;10.10;;;3.17;;
56081;SDS011;41957;52.060;5.138;2022-10-26T00:22:38;11.25;;;2.92;;
56081;SDS011;41957;52.060;5.138;2022-10-26T00:25:04;12.63;;;3.33;;
56081;SDS011;41957;52.060;5.138;2022-10-26T00:27:31;11.30;;;3.40;;
56081;SDS011;41957;52.060;5.138;2022-10-26T00:29:58;9.25;;;2.78;;
56081;SDS011;41957;52.060;5.138;2022-10-26T00:32:27;9.55;;;2.88;;
56081;SDS011;41957;52.060;5.138;2022-10-26T00:34:52;10.27;;;2.90;;
56081;SDS011;41957;52.060;5.138;2022-10-26T00:37:18;11.68;;;2.90;;
56081;SDS011;41957;52.060;5.138;2022-10-26T00:39:43;10.73;;;3.08;;
56081;SDS011;41957;52.060;5.138;2022-10-26T00:42:12;9.88;;;2.90;;
56081;SDS011;41957;52.060;5.138;2022-10-26T00:47:16;10.38;;;2.95;;
56081;SDS011;41957;52.060;5.138;2022-10-26T00:49:46;11.52;;;3.15;;
56081;SDS011;41957;52.060;5.138;2022-10-26T00:52:16;10.35;;;3.15;;
56081;SDS011;41957;52.060;5.138;2022-10-26T00:54:43;9.23;;;2.88;;
56081;SDS011;41957;52.060;5.138;2022-10-26T00:57:09;11.13;;;3.33;;
56081;SDS011;41957;52.060;5.138;2022-10-26T00:59:37;11.38;;;3.10;;
56081;SDS011;41957;52.060;5.138;2022-10-26T01:02:03;9.60;;;2.95;;
56081;SDS011;41957;52.060;5.138;2022-10-26T01:04:28;10.77;;;3.00;;
56081;SDS011;41957;52.060;5.138;2022-10-26T01:06:54;10.82;;;3.15;;
56081;SDS011;41957;52.060;5.138;2022-10-26T01:09:20;9.73;;;3.08;;
56081;SDS011;41957;52.060;5.138;2022-10-26T01:11:46;10.88;;;3.25;;
56081;SDS011;41957;52.060;5.138;2022-10-26T01:14:11;10.35;;;3.13;;
56081;SDS011;41957;52.060;5.138;2022-10-26T01:16:48;9.85;;;3.00;;
56081;SDS011;41957;52.060;5.138;2022-10-26T01:21:57;10.98;;;3.10;;
56081;SDS011;41957;52.060;5.138;2022-10-26T01:35:41;10.75;;;3.05;;
56081;SDS011;41957;52.060;5.138;2022-10-26T01:38:24;11.63;;;2.90;;
56081;SDS011;41957;52.060;5.138;2022-10-26T01:43:32;11.02;;;3.30;;
56081;SDS011;41957;52.060;5.138;2022-10-26T01:46:01;9.95;;;2.90;;
56081;SDS011;41957;52.060;5.138;2022-10-26T01:48:29;10.93;;;3.35;;
56081;SDS011;41957;52.060;5.138;2022-10-26T01:50:57;9.75;;;2.78;;
56081;SDS011;41957;52.060;5.138;2022-10-26T01:53:23;10.35;;;2.80;;
56081;SDS011;41957;52.060;5.138;2022-10-26T01:55:52;11.50;;;3.15;;
56081;SDS011;41957;52.060;5.138;2022-10-26T02:01:13;9.23;;;2.83;;
56081;SDS011;41957;52.060;5.138;2022-10-26T02:03:54;9.98;;;2.75;;
56081;SDS011;41957;52.060;5.138;2022-10-26T02:06:27;10.40;;;3.22;;
56081;SDS011;41957;52.060;5.138;2022-10-26T02:11:39;9.18;;;2.75;;
56081;SDS011;41957;52.060;5.138;2022-10-26T02:17:05;10.15;;;2.80;;
56081;SDS011;41957;52.060;5.138;2022-10-26T02:22:22;9.10;;;2.70;;
56081;SDS011;41957;52.060;5.138;2022-10-26T02:24:55;9.07;;;2.80;;
56081;SDS011;41957;52.060;5.138;2022-10-26T02:27:29;11.07;;;2.85;;
56081;SDS011;41957;52.060;5.138;2022-10-26T02:29:57;9.57;;;2.65;;
56081;SDS011;41957;52.060;5.138;2022-10-26T02:32:25;10.00;;;3.08;;
56081;SDS011;41957;52.060;5.138;2022-10-26T02:34:52;11.02;;;2.80;;
56081;SDS011;41957;52.060;5.138;2022-10-26T02:37:22;9.68;;;2.60;;
56081;SDS011;41957;52.060;5.138;2022-10-26T02:39:50;11.13;;;3.15;;
56081;SDS011;41957;52.060;5.138;2022-10-26T02:42:18;9.55;;;2.80;;
56081;SDS011;41957;52.060;5.138;2022-10-26T02:44:45;9.90;;;2.90;;
56081;SDS011;41957;52.060;5.138;2022-10-26T02:47:14;10.68;;;3.05;;
56081;SDS011;41957;52.060;5.138;2022-10-26T02:49:40;9.25;;;2.60;;
56081;SDS011;41957;52.060;5.138;2022-10-26T02:52:11;10.45;;;2.60;;
56081;SDS011;41957;52.060;5.138;2022-10-26T02:57:32;10.05;;;2.80;;
56081;SDS011;41957;52.060;5.138;2022-10-26T03:00:04;9.13;;;2.80;;
56081;SDS011;41957;52.060;5.138;2022-10-26T03:02:31;10.07;;;2.80;;
56081;SDS011;41957;52.060;5.138;2022-10-26T03:04:59;8.85;;;2.60;;
56081;SDS011;41957;52.060;5.138;2022-10-26T03:07:33;9.57;;;2.67;;
56081;SDS011;41957;52.060;5.138;2022-10-26T03:09:58;9.70;;;2.90;;
56081;SDS011;41957;52.060;5.138;2022-10-26T03:12:24;10.63;;;2.95;;
56081;SDS011;41957;52.060;5.138;2022-10-26T03:14:49;9.43;;;2.45;;
56081;SDS011;41957;52.060;5.138;2022-10-26T03:17:14;9.82;;;2.70;;
56081;SDS011;41957;52.060;5.138;2022-10-26T03:19:40;9.05;;;2.50;;
56081;SDS011;41957;52.060;5.138;2022-10-26T03:22:05;8.60;;;2.70;;
56081;SDS011;41957;52.060;5.138;2022-10-26T03:24:30;9.25;;;2.60;;
56081;SDS011;41957;52.060;5.138;2022-10-26T03:26:56;11.05;;;2.90;;
56081;SDS011;41957;52.060;5.138;2022-10-26T03:29:21;9.95;;;2.58;;
56081;SDS011;41957;52.060;5.138;2022-10-26T03:31:47;12.07;;;2.72;;
56081;SDS011;41957;52.060;5.138;2022-10-26T03:34:18;10.13;;;3.00;;
56081;SDS011;41957;52.060;5.138;2022-10-26T03:36:44;8.50;;;2.80;;
56081;SDS011;41957;52.060;5.138;2022-10-26T03:39:09;9.70;;;3.05;;
56081;SDS011;41957;52.060;5.138;2022-10-26T03:41:35;9.77;;;2.58;;
56081;SDS011;41957;52.060;5.138;2022-10-26T03:44:00;8.65;;;2.63;;
56081;SDS011;41957;52.060;5.138;2022-10-26T03:46:25;9.48;;;2.65;;
56081;SDS011;41957;52.060;5.138;2022-10-26T03:48:51;11.40;;;2.80;;
56081;SDS011;41957;52.060;5.138;2022-10-26T03:51:16;9.32;;;2.70;;
56081;SDS011;41957;52.060;5.138;2022-10-26T03:53:41;9.32;;;2.80;;
56081;SDS011;41957;52.060;5.138;2022-10-26T03:56:07;10.40;;;3.08;;
56081;SDS011;41957;52.060;5.138;2022-10-26T03:58:32;10.45;;;2.88;;
56081;SDS011;41957;52.060;5.138;2022-10-26T04:00:57;8.73;;;2.63;;
56081;SDS011;41957;52.060;5.138;2022-10-26T04:03:23;8.40;;;2.88;;
56081;SDS011;41957;52.060;5.138;2022-10-26T04:05:51;9.65;;;2.80;;
56081;SDS011;41957;52.060;5.138;2022-10-26T04:08:16;10.80;;;2.90;;
56081;SDS011;41957;52.060;5.138;2022-10-26T04:10:44;8.57;;;2.45;;
56081;SDS011;41957;52.060;5.138;2022-10-26T04:13:09;9.63;;;3.10;;
56081;SDS011;41957;52.060;5.138;2022-10-26T04:15:35;10.20;;;2.90;;
56081;SDS011;41957;52.060;5.138;2022-10-26T04:18:01;10.55;;;2.70;;
56081;SDS011;41957;52.060;5.138;2022-10-26T04:20:27;9.73;;;2.63;;
56081;SDS011;41957;52.060;5.138;2022-10-26T04:22:57;8.48;;;2.70;;
56081;SDS011;41957;52.060;5.138;2022-10-26T04:25:23;11.00;;;2.70;;
56081;SDS011;41957;52.060;5.138;2022-10-26T04:27:48;11.02;;;2.80;;
56081;SDS011;41957;52.060;5.138;2022-10-26T04:30:13;11.07;;;2.88;;
56081;SDS011;41957;52.060;5.138;2022-10-26T04:32:39;8.85;;;2.60;;
56081;SDS011;41957;52.060;5.138;2022-10-26T04:35:04;10.30;;;2.92;;
56081;SDS011;41957;52.060;5.138;2022-10-26T04:37:30;10.55;;;2.70;;
56081;SDS011;41957;52.060;5.138;2022-10-26T04:39:55;10.10;;;2.60;;
56081;SDS011;41957;52.060;5.138;2022-10-26T04:42:20;11.90;;;2.90;;
56081;SDS011;41957;52.060;5.138;2022-10-26T04:44:46;9.80;;;2.70;;
56081;SDS011;41957;52.060;5.138;2022-10-26T04:47:11;10.02;;;2.75;;
56081;SDS011;41957;52.060;5.138;2022-10-26T04:49:36;10.45;;;2.60;;
56081;SDS011;41957;52.060;5.138;2022-10-26T04:52:02;8.55;;;2.50;;
56081;SDS011;41957;52.060;5.138;2022-10-26T04:54:30;9.27;;;2.65;;
56081;SDS011;41957;52.060;5.138;2022-10-26T04:56:55;9.30;;;2.45;;
56081;SDS011;41957;52.060;5.138;2022-10-26T04:59:20;7.45;;;2.30;;
56081;SDS011;41957;52.060;5.138;2022-10-26T05:01:46;10.38;;;2.47;;
56081;SDS011;41957;52.060;5.138;2022-10-26T05:04:11;9.32;;;2.42;;
56081;SDS011;41957;52.060;5.138;2022-10-26T05:06:36;9.35;;;2.55;;
56081;SDS011;41957;52.060;5.138;2022-10-26T05:09:02;11.07;;;3.05;;
56081;SDS011;41957;52.060;5.138;2022-10-26T05:11:27;9.95;;;2.60;;
56081;SDS011;41957;52.060;5.138;2022-10-26T05:13:53;11.05;;;2.63;;
56081;SDS011;41957;52.060;5.138;2022-10-26T05:16:18;8.10;;;2.22;;
56081;SDS011;41957;52.060;5.138;2022-10-26T05:18:46;10.10;;;2.80;;
56081;SDS011;41957;52.060;5.138;2022-10-26T05:21:12;8.23;;;2.50;;
56081;SDS011;41957;52.060;5.138;2022-10-26T05:23:43;9.65;;;2.50;;
56081;SDS011;41957;52.060;5.138;2022-10-26T05:26:09;9.27;;;2.42;;
56081;SDS011;41957;52.060;5.138;2022-10-26T05:28:34;9.93;;;2.85;;
56081;SDS011;41957;52.060;5.138;2022-10-26T05:30:59;8.15;;;2.42;;
56081;SDS011;41957;52.060;5.138;2022-10-26T05:33:25;9.95;;;2.60;;
56081;SDS011;41957;52.060;5.138;2022-10-26T05:35:52;10.55;;;2.60;;
56081;SDS011;41957;52.060;5.138;2022-10-26T05:38:18;9.02;;;2.33;;
56081;SDS011;41957;52.060;5.138;2022-10-26T05:40:47;10.02;;;2.75;;
56081;SDS011;41957;52.060;5.138;2022-10-26T05:43:16;7.68;;;2.42;;
56081;SDS011;41957;52.060;5.138;2022-10-26T05:45:42;11.43;;;2.95;;
56081;SDS011;41957;52.060;5.138;2022-10-26T05:48:07;10.43;;;2.65;;
56081;SDS011;41957;52.060;5.138;2022-10-26T05:50:33;13.70;;;2.83;;
56081;SDS011;41957;52.060;5.138;2022-10-26T05:52:58;10.10;;;2.80;;
56081;SDS011;41957;52.060;5.138;2022-10-26T05:55:23;9.95;;;2.75;;
56081;SDS011;41957;52.060;5.138;2022-10-26T05:57:49;9.48;;;2.90;;
56081;SDS011;41957;52.060;5.138;2022-10-26T06:00:19;10.20;;;2.85;;
56081;SDS011;41957;52.060;5.138;2022-10-26T06:08:18;12.02;;;3.15;;
56081;SDS011;41957;52.060;5.138;2022-10-26T06:10:45;11.05;;;3.05;;
56081;SDS011;41957;52.060;5.138;2022-10-26T06:13:11;9.68;;;2.90;;
56081;SDS011;41957;52.060;5.138;2022-10-26T06:15:48;12.27;;;2.90;;
56081;SDS011;41957;52.060;5.138;2022-10-26T06:23:46;10.50;;;2.80;;
56081;SDS011;41957;52.060;5.138;2022-10-26T06:26:31;10.32;;;2.80;;
56081;SDS011;41957;52.060;5.138;2022-10-26T06:31:46;10.15;;;2.80;;
56081;SDS011;41957;52.060;5.138;2022-10-26T06:34:13;11.20;;;3.42;;
56081;SDS011;41957;52.060;5.138;2022-10-26T06:36:46;11.63;;;3.00;;
56081;SDS011;41957;52.060;5.138;2022-10-26T06:39:14;11.25;;;2.92;;
56081;SDS011;41957;52.060;5.138;2022-10-26T06:41:41;10.35;;;2.90;;
56081;SDS011;41957;52.060;5.138;2022-10-26T06:44:07;9.07;;;2.65;;
56081;SDS011;41957;52.060;5.138;2022-10-26T06:46:47;9.30;;;2.90;;
56081;SDS011;41957;52.060;5.138;2022-10-26T06:54:46;10.48;;;2.88;;
56081;SDS011;41957;52.060;5.138;2022-10-26T06:57:16;15.77;;;3.45;;
56081;SDS011;41957;52.060;5.138;2022-10-26T06:59:56;11.45;;;3.30;;
56081;SDS011;41957;52.060;5.138;2022-10-26T07:02:25;11.27;;;3.00;;
56081;SDS011;41957;52.060;5.138;2022-10-26T07:04:50;11.95;;;3.13;;
56081;SDS011;41957;52.060;5.138;2022-10-26T07:07:19;10.25;;;2.80;;
56081;SDS011;41957;52.060;5.138;2022-10-26T07:09:46;9.50;;;2.65;;
56081;SDS011;41957;52.060;5.138;2022-10-26T07:12:12;10.60;;;2.90;;
56081;SDS011;41957;52.060;5.138;2022-10-26T07:14:38;11.30;;;2.92;;
56081;SDS011;41957;52.060;5.138;2022-10-26T07:17:03;9.93;;;2.72;;
56081;SDS011;41957;52.060;5.138;2022-10-26T07:19:29;9.50;;;2.78;;
56081;SDS011;41957;52.060;5.138;2022-10-26T07:21:55;10.93;;;3.05;;
56081;SDS011;41957;52.060;5.138;2022-10-26T07:24:21;13.68;;;3.50;;
56081;SDS011;41957;52.060;5.138;2022-10-26T07:26:47;12.00;;;3.03;;
56081;SDS011;41957;52.060;5.138;2022-10-26T07:29:13;10.73;;;2.85;;
56081;SDS011;41957;52.060;5.138;2022-10-26T07:31:40;11.32;;;3.10;;
56081;SDS011;41957;52.060;5.138;2022-10-26T07:34:05;9.30;;;2.80;;
56081;SDS011;41957;52.060;5.138;2022-10-26T07:36:31;10.23;;;2.65;;
56081;SDS011;41957;52.060;5.138;2022-10-26T07:38:56;11.07;;;2.90;;
56081;SDS011;41957;52.060;5.138;2022-10-26T07:41:21;11.38;;;3.05;;
56081;SDS011;41957;52.060;5.138;2022-10-26T07:43:47;11.98;;;3.15;;
56081;SDS011;41957;52.060;5.138;2022-10-26T07:46:14;9.75;;;2.90;;
56081;SDS011;41957;52.060;5.138;2022-10-26T07:48:40;10.95;;;3.10;;
56081;SDS011;41957;52.060;5.138;2022-10-26T07:51:06;12.27;;;3.28;;
56081;SDS011;41957;52.060;5.138;2022-10-26T07:53:31;11.15;;;2.90;;
56081;SDS011;41957;52.060;5.138;2022-10-26T07:55:57;12.80;;;3.50;;
56081;SDS011;41957;52.060;5.138;2022-10-26T07:58:22;10.07;;;2.83;;
56081;SDS011;41957;52.060;5.138;2022-10-26T08:00:50;9.73;;;2.88;;
56081;SDS011;41957;52.060;5.138;2022-10-26T08:03:16;11.00;;;3.05;;
56081;SDS011;41957;52.060;5.138;2022-10-26T08:05:44;8.75;;;2.55;;
56081;SDS011;41957;52.060;5.138;2022-10-26T08:08:11;11.35;;;2.72;;
56081;SDS011;41957;52.060;5.138;2022-10-26T08:10:37;10.13;;;2.63;;
56081;SDS011;41957;52.060;5.138;2022-10-26T08:13:07;8.85;;;2.38;;
56081;SDS011;41957;52.060;5.138;2022-10-26T08:15:32;11.38;;;3.22;;
56081;SDS011;41957;52.060;5.138;2022-10-26T08:17:57;10.55;;;2.92;;
56081;SDS011;41957;52.060;5.138;2022-10-26T08:20:23;10.60;;;2.53;;
56081;SDS011;41957;52.060;5.138;2022-10-26T08:22:48;8.98;;;2.22;;
56081;SDS011;41957;52.060;5.138;2022-10-26T08:25:13;11.35;;;2.80;;
56081;SDS011;41957;52.060;5.138;2022-10-26T08:27:39;10.88;;;2.63;;
56081;SDS011;41957;52.060;5.138;2022-10-26T08:30:04;11.10;;;2.83;;
56081;SDS011;41957;52.060;5.138;2022-10-26T08:32:30;9.05;;;2.67;;
56081;SDS011;41957;52.060;5.138;2022-10-26T08:34:55;9.40;;;2.80;;
56081;SDS011;41957;52.060;5.138;2022-10-26T08:37:20;12.50;;;2.95;;
56081;SDS011;41957;52.060;5.138;2022-10-26T08:39:46;9.48;;;2.60;;
56081;SDS011;41957;52.060;5.138;2022-10-26T08:42:16;9.55;;;2.22;;
56081;SDS011;41957;52.060;5.138;2022-10-26T08:44:49;10.00;;;2.28;;
56081;SDS011;41957;52.060;5.138;2022-10-26T08:47:22;11.93;;;2.60;;
56081;SDS011;41957;52.060;5.138;2022-10-26T08:49:59;9.25;;;2.53;;
56081;SDS011;41957;52.060;5.138;2022-10-26T08:52:35;10.45;;;2.70;;
56081;SDS011;41957;52.060;5.138;2022-10-26T08:55:14;11.15;;;2.90;;
56081;SDS011;41957;52.060;5.138;2022-10-26T08:57:43;11.18;;;2.63;;
56081;SDS011;41957;52.060;5.138;2022-10-26T09:00:21;10.35;;;2.70;;
56081;SDS011;41957;52.060;5.138;2022-10-26T09:02:52;8.68;;;2.33;;
56081;SDS011;41957;52.060;5.138;2022-10-26T09:05:22;10.27;;;2.58;;
56081;SDS011;41957;52.060;5.138;2022-10-26T09:07:55;8.20;;;2.45;;
56081;SDS011;41957;52.060;5.138;2022-10-26T09:16:14;10.80;;;2.65;;
56081;SDS011;41957;52.060;5.138;2022-10-26T09:18:58;10.25;;;2.70;;
56081;SDS011;41957;52.060;5.138;2022-10-26T09:24:15;10.98;;;2.47;;
56081;SDS011;41957;52.060;5.138;2022-10-26T09:26:54;8.70;;;2.60;;
56081;SDS011;41957;52.060;5.138;2022-10-26T09:29:42;10.02;;;2.70;;
56081;SDS011;41957;52.060;5.138;2022-10-26T09:32:18;10.48;;;2.83;;
56081;SDS011;41957;52.060;5.138;2022-10-26T09:34:47;8.73;;;2.25;;
56081;SDS011;41957;52.060;5.138;2022-10-26T09:37:26;9.88;;;2.65;;
56081;SDS011;41957;52.060;5.138;2022-10-26T09:45:35;8.93;;;2.55;;
56081;SDS011;41957;52.060;5.138;2022-10-26T09:48:13;9.73;;;2.50;;
56081;SDS011;41957;52.060;5.138;2022-10-26T09:50:51;10.35;;;2.97;;
56081;SDS011;41957;52.060;5.138;2022-10-26T09:53:16;9.73;;;2.30;;
56081;SDS011;41957;52.060;5.138;2022-10-26T09:55:44;11.43;;;2.63;;
56081;SDS011;41957;52.060;5.138;2022-10-26T09:58:16;8.43;;;2.20;;
56081;SDS011;41957;52.060;5.138;2022-10-26T10:00:45;9.07;;;2.60;;
56081;SDS011;41957;52.060;5.138;2022-10-26T10:03:23;11.70;;;2.80;;
56081;SDS011;41957;52.060;5.138;2022-10-26T10:05:50;10.30;;;2.90;;
56081;SDS011;41957;52.060;5.138;2022-10-26T10:08:20;8.75;;;2.20;;
56081;SDS011;41957;52.060;5.138;2022-10-26T10:13:43;10.23;;;2.38;;
56081;SDS011;41957;52.060;5.138;2022-10-26T10:16:20;8.60;;;2.33;;
56081;SDS011;41957;52.060;5.138;2022-10-26T10:18:54;8.60;;;2.30;;
56081;SDS011;41957;52.060;5.138;2022-10-26T10:21:22;8.93;;;2.10;;
56081;SDS011;41957;52.060;5.138;2022-10-26T10:23:58;10.60;;;2.50;;
56081;SDS011;41957;52.060;5.138;2022-10-26T10:26:24;7.70;;;2.28;;
56081;SDS011;41957;52.060;5.138;2022-10-26T10:28:56;8.82;;;2.58;;
56081;SDS011;41957;52.060;5.138;2022-10-26T10:31:27;10.15;;;2.47;;
56081;SDS011;41957;52.060;5.138;2022-10-26T10:33:55;8.98;;;2.60;;
56081;SDS011;41957;52.060;5.138;2022-10-26T10:36:21;12.70;;;2.75;;
56081;SDS011;41957;52.060;5.138;2022-10-26T10:38:50;8.63;;;2.60;;
56081;SDS011;41957;52.060;5.138;2022-10-26T10:43:52;8.15;;;2.33;;
56081;SDS011;41957;52.060;5.138;2022-10-26T10:46:29;8.52;;;2.30;;
56081;SDS011;41957;52.060;5.138;2022-10-26T10:49:02;7.82;;;2.28;;
56081;SDS011;41957;52.060;5.138;2022-10-26T10:51:29;9.80;;;2.50;;
56081;SDS011;41957;52.060;5.138;2022-10-26T10:54:01;10.00;;;2.92;;
56081;SDS011;41957;52.060;5.138;2022-10-26T11:01:46;10.52;;;2.83;;
56081;SDS011;41957;52.060;5.138;2022-10-26T11:06:46;10.93;;;2.70;;
56081;SDS011;41957;52.060;5.138;2022-10-26T11:09:18;8.38;;;2.63;;
56081;SDS011;41957;52.060;5.138;2022-10-26T11:14:17;11.50;;;3.70;;
56081;SDS011;41957;52.060;5.138;2022-10-26T11:16:51;12.57;;;4.60;;
56081;SDS011;41957;52.060;5.138;2022-10-26T11:21:54;14.18;;;4.30;;
56081;SDS011;41957;52.060;5.138;2022-10-26T11:24:41;13.82;;;4.10;;
56081;SDS011;41957;52.060;5.138;2022-10-26T11:27:13;11.75;;;3.65;;
56081;SDS011;41957;52.060;5.138;2022-10-26T11:30:00;10.35;;;3.30;;
56081;SDS011;41957;52.060;5.138;2022-10-26T11:38:00;10.45;;;3.10;;
56081;SDS011;41957;52.060;5.138;2022-10-26T11:40:48;12.20;;;3.30;;
56081;SDS011;41957;52.060;5.138;2022-10-26T11:46:23;10.93;;;3.30;;
56081;SDS011;41957;52.060;5.138;2022-10-26T11:51:43;11.43;;;3.13;;
56081;SDS011;41957;52.060;5.138;2022-10-26T11:54:30;10.13;;;3.05;;
56081;SDS011;41957;52.060;5.138;2022-10-26T11:56:59;9.20;;;2.80;;
56081;SDS011;41957;52.060;5.138;2022-10-26T11:59:29;10.60;;;3.00;;
56081;SDS011;41957;52.060;5.138;2022-10-26T12:01:59;9.32;;;2.70;;
56081;SDS011;41957;52.060;5.138;2022-10-26T12:04:27;10.75;;;2.80;;
56081;SDS011;41957;52.060;5.138;2022-10-26T12:06:55;10.40;;;3.03;;
56081;SDS011;41957;52.060;5.138;2022-10-26T12:09:26;10.63;;;2.55;;
56081;SDS011;41957;52.060;5.138;2022-10-26T12:12:06;9.80;;;2.63;;
56081;SDS011;41957;52.060;5.138;2022-10-26T12:14:40;11.55;;;3.10;;
56081;SDS011;41957;52.060;5.138;2022-10-26T12:17:19;9.68;;;2.50;;
56081;SDS011;41957;52.060;5.138;2022-10-26T12:23:51;10.48;;;2.80;;
56081;SDS011;41957;52.060;5.138;2022-10-26T12:28:48;9.48;;;2.45;;
56081;SDS011;41957;52.060;5.138;2022-10-26T12:34:12;11.77;;;3.22;;
56081;SDS011;41957;52.060;5.138;2022-10-26T12:47:48;10.35;;;2.60;;
56081;SDS011;41957;52.060;5.138;2022-10-26T12:52:39;9.65;;;2.70;;
56081;SDS011;41957;52.060;5.138;2022-10-26T13:00:21;10.23;;;2.75;;
56081;SDS011;41957;52.060;5.138;2022-10-26T13:02:53;11.55;;;2.90;;
56081;SDS011;41957;52.060;5.138;2022-10-26T13:08:40;9.13;;;2.92;;
56081;SDS011;41957;52.060;5.138;2022-10-26T13:13:57;12.32;;;3.08;;
56081;SDS011;41957;52.060;5.138;2022-10-26T13:16:27;9.40;;;2.72;;
56081;SDS011;41957;52.060;5.138;2022-10-26T13:18:54;9.77;;;3.05;;
56081;SDS011;41957;52.060;5.138;2022-10-26T13:21:21;11.63;;;2.92;;
56081;SDS011;41957;52.060;5.138;2022-10-26T13:26:24;9.68;;;2.70;;
56081;SDS011;41957;52.060;5.138;2022-10-26T13:28:52;9.90;;;2.85;;
56081;SDS011;41957;52.060;5.138;2022-10-26T13:33:47;9.82;;;2.72;;
56081;SDS011;41957;52.060;5.138;2022-10-26T13:36:19;10.60;;;2.60;;
56081;SDS011;41957;52.060;5.138;2022-10-26T13:39:09;10.00;;;2.65;;
56081;SDS011;41957;52.060;5.138;2022-10-26T13:41:40;11.27;;;3.08;;
56081;SDS011;41957;52.060;5.138;2022-10-26T13:44:52;11.90;;;2.95;;
56081;SDS011;41957;52.060;5.138;2022-10-26T13:46:58;10.43;;;2.92;;
56081;SDS011;41957;52.060;5.138;2022-10-26T13:49:29;9.80;;;2.72;;
56081;SDS011;41957;52.060;5.138;2022-10-26T13:52:00;13.23;;;2.88;;
56081;SDS011;41957;52.060;5.138;2022-10-26T13:54:35;9.75;;;2.83;;
56081;SDS011;41957;52.060;5.138;2022-10-26T13:59:32;11.05;;;3.00;;
56081;SDS011;41957;52.060;5.138;2022-10-26T14:04:59;12.43;;;3.15;;
56081;SDS011;41957;52.060;5.138;2022-10-26T14:07:30;11.43;;;2.75;;
56081;SDS011;41957;52.060;5.138;2022-10-26T14:10:01;10.40;;;2.63;;
56081;SDS011;41957;52.060;5.138;2022-10-26T14:12:28;11.02;;;2.78;;
56081;SDS011;41957;52.060;5.138;2022-10-26T14:15:07;10.00;;;2.60;;
56081;SDS011;41957;52.060;5.138;2022-10-26T14:17:33;11.63;;;3.10;;
56081;SDS011;41957;52.060;5.138;2022-10-26T14:19:59;10.00;;;2.53;;
56081;SDS011;41957;52.060;5.138;2022-10-26T14:22:26;12.05;;;2.88;;
56081;SDS011;41957;52.060;5.138;2022-10-26T14:24:54;10.98;;;2.78;;
56081;SDS011;41957;52.060;5.138;2022-10-26T14:27:22;11.68;;;2.97;;
56081;SDS011;41957;52.060;5.138;2022-10-26T14:29:49;8.60;;;2.50;;
56081;SDS011;41957;52.060;5.138;2022-10-26T14:34:46;11.45;;;3.05;;
56081;SDS011;41957;52.060;5.138;2022-10-26T14:37:11;11.02;;;3.05;;
56081;SDS011;41957;52.060;5.138;2022-10-26T14:39:47;9.57;;;2.47;;
56081;SDS011;41957;52.060;5.138;2022-10-26T14:42:27;9.60;;;2.70;;
56081;SDS011;41957;52.060;5.138;2022-10-26T14:44:55;11.38;;;2.65;;
56081;SDS011;41957;52.060;5.138;2022-10-26T14:47:28;11.65;;;2.78;;
56081;SDS011;41957;52.060;5.138;2022-10-26T14:49:56;8.57;;;2.40;;
56081;SDS011;41957;52.060;5.138;2022-10-26T14:52:24;8.65;;;2.50;;
56081;SDS011;41957;52.060;5.138;2022-10-26T14:57:34;7.93;;;2.20;;
56081;SDS011;41957;52.060;5.138;2022-10-26T15:00:04;9.57;;;2.90;;
56081;SDS011;41957;52.060;5.138;2022-10-26T15:02:41;9.52;;;2.35;;
56081;SDS011;41957;52.060;5.138;2022-10-26T15:05:17;8.32;;;2.10;;
56081;SDS011;41957;52.060;5.138;2022-10-26T15:07:49;9.45;;;2.70;;
56081;SDS011;41957;52.060;5.138;2022-10-26T15:13:07;9.30;;;2.53;;
56081;SDS011;41957;52.060;5.138;2022-10-26T15:15:33;8.75;;;2.30;;
56081;SDS011;41957;52.060;5.138;2022-10-26T15:17:58;9.15;;;2.38;;
56081;SDS011;41957;52.060;5.138;2022-10-26T15:20:25;9.32;;;2.70;;
56081;SDS011;41957;52.060;5.138;2022-10-26T15:22:59;9.57;;;2.38;;
56081;SDS011;41957;52.060;5.138;2022-10-26T15:25:27;10.93;;;2.50;;
56081;SDS011;41957;52.060;5.138;2022-10-26T15:27:54;10.52;;;2.40;;
56081;SDS011;41957;52.060;5.138;2022-10-26T15:30:33;11.48;;;2.53;;
56081;SDS011;41957;52.060;5.138;2022-10-26T15:32:59;10.85;;;2.70;;
56081;SDS011;41957;52.060;5.138;2022-10-26T15:35:42;9.93;;;2.30;;
56081;SDS011;41957;52.060;5.138;2022-10-26T15:38:09;9.82;;;2.35;;
56081;SDS011;41957;52.060;5.138;2022-10-26T15:40:35;10.20;;;2.55;;
56081;SDS011;41957;52.060;5.138;2022-10-26T15:43:08;12.20;;;2.70;;
56081;SDS011;41957;52.060;5.138;2022-10-26T15:45:35;10.52;;;2.42;;
56081;SDS011;41957;52.060;5.138;2022-10-26T15:48:16;49.15;;;5.38;;
56081;SDS011;41957;52.060;5.138;2022-10-26T15:50:43;18.13;;;3.17;;
56081;SDS011;41957;52.060;5.138;2022-10-26T15:53:12;12.55;;;2.60;;
56081;SDS011;41957;52.060;5.138;2022-10-26T15:55:42;10.50;;;2.60;;
56081;SDS011;41957;52.060;5.138;2022-10-26T15:58:08;8.73;;;2.45;;
56081;SDS011;41957;52.060;5.138;2022-10-26T16:00:35;9.73;;;2.58;;
56081;SDS011;41957;52.060;5.138;2022-10-26T16:03:01;7.80;;;2.20;;
56081;SDS011;41957;52.060;5.138;2022-10-26T16:05:26;10.23;;;2.50;;
56081;SDS011;41957;52.060;5.138;2022-10-26T16:07:52;9.10;;;2.50;;
56081;SDS011;41957;52.060;5.138;2022-10-26T16:13:13;8.40;;;2.08;;
56081;SDS011;41957;52.060;5.138;2022-10-26T16:15:51;10.10;;;2.45;;
56081;SDS011;41957;52.060;5.138;2022-10-26T16:18:20;9.30;;;2.53;;
56081;SDS011;41957;52.060;5.138;2022-10-26T16:21:08;10.90;;;2.88;;
56081;SDS011;41957;52.060;5.138;2022-10-26T16:24:02;8.88;;;2.25;;
56081;SDS011;41957;52.060;5.138;2022-10-26T16:26:27;11.93;;;2.95;;
56081;SDS011;41957;52.060;5.138;2022-10-26T16:28:53;11.43;;;3.65;;
56081;SDS011;41957;52.060;5.138;2022-10-26T16:31:25;15.25;;;4.38;;
56081;SDS011;41957;52.060;5.138;2022-10-26T16:33:51;12.55;;;4.50;;
56081;SDS011;41957;52.060;5.138;2022-10-26T16:36:16;13.27;;;4.80;;
56081;SDS011;41957;52.060;5.138;2022-10-26T16:38:42;13.30;;;5.15;;
56081;SDS011;41957;52.060;5.138;2022-10-26T16:41:11;12.32;;;5.13;;
56081;SDS011;41957;52.060;5.138;2022-10-26T16:43:38;15.50;;;5.95;;
56081;SDS011;41957;52.060;5.138;2022-10-26T16:46:07;136.63;;;67.85;;
56081;SDS011;41957;52.060;5.138;2022-10-26T16:48:42;115.40;;;59.35;;
56081;SDS011;41957;52.060;5.138;2022-10-26T16:51:18;112.32;;;58.35;;
56081;SDS011;41957;52.060;5.138;2022-10-26T16:53:45;156.80;;;77.13;;
56081;SDS011;41957;52.060;5.138;2022-10-26T16:56:13;128.77;;;73.40;;
56081;SDS011;41957;52.060;5.138;2022-10-26T16:58:40;136.73;;;70.35;;
56081;SDS011;41957;52.060;5.138;2022-10-26T17:01:06;137.45;;;68.57;;
56081;SDS011;41957;52.060;5.138;2022-10-26T17:03:32;121.55;;;66.25;;
56081;SDS011;41957;52.060;5.138;2022-10-26T17:05:59;121.00;;;61.95;;
56081;SDS011;41957;52.060;5.138;2022-10-26T17:08:26;114.55;;;61.17;;
56081;SDS011;41957;52.060;5.138;2022-10-26T17:10:53;113.18;;;60.88;;
56081;SDS011;41957;52.060;5.138;2022-10-26T17:13:19;111.35;;;57.78;;
56081;SDS011;41957;52.060;5.138;2022-10-26T17:15:45;112.18;;;59.22;;
56081;SDS011;41957;52.060;5.138;2022-10-26T17:18:11;103.50;;;55.05;;
56081;SDS011;41957;52.060;5.138;2022-10-26T17:20:37;92.75;;;51.28;;